sensor_id;sensor_type;location;lat;lon;timestamp;temperature;humidity
51841;DHT22;37888;53.246;6.658;2023-07-13T00:01:47;16.40;99.90
51841;DHT22;37888;53.246;6.658;2023-07-13T00:04:20;16.40;99.90
51841;DHT22;37888;53.246;6.658;2023-07-13T00:06:47;16.40;99.90
51841;DHT22;37888;53.246;6.658;2023-07-13T00:09:14;16.30;99.90
51841;DHT22;37888;53.246;6.658;2023-07-13T00:11:40;16.30;99.90
51841;DHT22;37888;53.246;6.658;2023-07-13T00:14:08;16.30;99.90
51841;DHT22;37888;53.246;6.658;2023-07-13T00:16:36;16.20;99.90
51841;DHT22;37888;53.246;6.658;2023-07-13T00:19:03;16.20;99.90
51841;DHT22;37888;53.246;6.658;2023-07-13T00:21:29;16.20;99.90
51841;DHT22;37888;53.246;6.658;2023-07-13T00:23:55;16.20;99.90
51841;DHT22;37888;53.246;6.658;2023-07-13T00:26:20;16.20;99.90
51841;DHT22;37888;53.246;6.658;2023-07-13T00:28:46;16.20;99.90
51841;DHT22;37888;53.246;6.658;2023-07-13T00:31:13;16.20;99.90
51841;DHT22;37888;53.246;6.658;2023-07-13T00:33:40;16.20;99.90
51841;DHT22;37888;53.246;6.658;2023-07-13T00:36:09;16.20;99.90
51841;DHT22;37888;53.246;6.658;2023-07-13T00:38:35;16.20;99.90
51841;DHT22;37888;53.246;6.658;2023-07-13T00:41:02;16.30;99.90
51841;DHT22;37888;53.246;6.658;2023-07-13T00:43:29;16.20;99.90
51841;DHT22;37888;53.246;6.658;2023-07-13T00:48:27;16.30;99.90
51841;DHT22;37888;53.246;6.658;2023-07-13T00:50:57;16.30;99.90
51841;DHT22;37888;53.246;6.658;2023-07-13T00:53:25;16.30;99.90
51841;DHT22;37888;53.246;6.658;2023-07-13T00:55:53;16.30;99.90
51841;DHT22;37888;53.246;6.658;2023-07-13T01:00:47;16.30;99.90
51841;DHT22;37888;53.246;6.658;2023-07-13T01:03:14;16.30;99.90
51841;DHT22;37888;53.246;6.658;2023-07-13T01:05:39;16.30;99.90
51841;DHT22;37888;53.246;6.658;2023-07-13T01:08:05;16.30;99.90
51841;DHT22;37888;53.246;6.658;2023-07-13T01:10:32;16.30;99.90
51841;DHT22;37888;53.246;6.658;2023-07-13T01:13:09;16.30;99.90
51841;DHT22;37888;53.246;6.658;2023-07-13T01:15:42;16.30;99.90
51841;DHT22;37888;53.246;6.658;2023-07-13T01:18:18;16.30;99.90
51841;DHT22;37888;53.246;6.658;2023-07-13T01:23:16;16.30;99.90
51841;DHT22;37888;53.246;6.658;2023-07-13T01:25:42;16.30;99.90
51841;DHT22;37888;53.246;6.658;2023-07-13T01:28:08;16.40;99.90
51841;DHT22;37888;53.246;6.658;2023-07-13T01:30:39;16.30;99.90
51841;DHT22;37888;53.246;6.658;2023-07-13T01:33:09;16.30;99.90
51841;DHT22;37888;53.246;6.658;2023-07-13T01:35:35;16.30;99.90
51841;DHT22;37888;53.246;6.658;2023-07-13T01:38:01;16.20;99.90
51841;DHT22;37888;53.246;6.658;2023-07-13T01:40:31;16.20;99.90
51841;DHT22;37888;53.246;6.658;2023-07-13T01:42:58;16.20;99.90
51841;DHT22;37888;53.246;6.658;2023-07-13T01:45:24;16.20;99.90
51841;DHT22;37888;53.246;6.658;2023-07-13T01:47:49;16.20;99.90
51841;DHT22;37888;53.246;6.658;2023-07-13T01:50:15;16.20;99.90
51841;DHT22;37888;53.246;6.658;2023-07-13T01:52:41;16.20;99.90
51841;DHT22;37888;53.246;6.658;2023-07-13T01:55:07;16.20;99.90
51841;DHT22;37888;53.246;6.658;2023-07-13T01:57:33;16.20;99.90
51841;DHT22;37888;53.246;6.658;2023-07-13T01:59:59;16.20;99.90
51841;DHT22;37888;53.246;6.658;2023-07-13T02:02:25;16.30;99.90
51841;DHT22;37888;53.246;6.658;2023-07-13T02:04:51;16.30;99.90
51841;DHT22;37888;53.246;6.658;2023-07-13T02:07:16;16.30;99.90
51841;DHT22;37888;53.246;6.658;2023-07-13T02:09:42;16.30;99.90
51841;DHT22;37888;53.246;6.658;2023-07-13T02:12:08;16.30;99.90
51841;DHT22;37888;53.246;6.658;2023-07-13T02:14:34;16.30;99.90
51841;DHT22;37888;53.246;6.658;2023-07-13T02:17:00;16.30;99.90
51841;DHT22;37888;53.246;6.658;2023-07-13T02:19:26;16.30;99.90
51841;DHT22;37888;53.246;6.658;2023-07-13T02:21:52;16.30;99.90
51841;DHT22;37888;53.246;6.658;2023-07-13T02:24:17;16.30;99.90
51841;DHT22;37888;53.246;6.658;2023-07-13T02:26:45;16.30;99.90
51841;DHT22;37888;53.246;6.658;2023-07-13T02:29:11;16.30;99.90
51841;DHT22;37888;53.246;6.658;2023-07-13T02:31:37;16.30;99.90
51841;DHT22;37888;53.246;6.658;2023-07-13T02:34:03;16.20;99.90
51841;DHT22;37888;53.246;6.658;2023-07-13T02:36:30;16.20;99.90
51841;DHT22;37888;53.246;6.658;2023-07-13T02:38:55;16.20;99.90
51841;DHT22;37888;53.246;6.658;2023-07-13T02:41:21;16.20;99.90
51841;DHT22;37888;53.246;6.658;2023-07-13T02:43:48;16.20;99.90
51841;DHT22;37888;53.246;6.658;2023-07-13T02:46:14;16.20;99.90
51841;DHT22;37888;53.246;6.658;2023-07-13T02:48:40;16.20;99.90
51841;DHT22;37888;53.246;6.658;2023-07-13T02:51:06;16.10;99.90
51841;DHT22;37888;53.246;6.658;2023-07-13T02:53:33;16.10;99.90
51841;DHT22;37888;53.246;6.658;2023-07-13T02:55:59;16.10;99.90
51841;DHT22;37888;53.246;6.658;2023-07-13T02:58:25;16.10;99.90
51841;DHT22;37888;53.246;6.658;2023-07-13T03:00:51;16.10;99.90
51841;DHT22;37888;53.246;6.658;2023-07-13T03:03:17;16.00;99.90
51841;DHT22;37888;53.246;6.658;2023-07-13T03:05:44;16.00;99.90
51841;DHT22;37888;53.246;6.658;2023-07-13T03:08:10;16.00;99.90
51841;DHT22;37888;53.246;6.658;2023-07-13T03:10:37;15.90;99.90
51841;DHT22;37888;53.246;6.658;2023-07-13T03:13:05;15.90;99.90
51841;DHT22;37888;53.246;6.658;2023-07-13T03:15:31;15.80;99.90
51841;DHT22;37888;53.246;6.658;2023-07-13T03:17:57;15.90;99.90
51841;DHT22;37888;53.246;6.658;2023-07-13T03:20:22;15.80;99.90
51841;DHT22;37888;53.246;6.658;2023-07-13T03:22:48;15.80;99.90
51841;DHT22;37888;53.246;6.658;2023-07-13T03:25:14;15.80;99.90
51841;DHT22;37888;53.246;6.658;2023-07-13T03:27:40;15.70;99.90
51841;DHT22;37888;53.246;6.658;2023-07-13T03:30:06;15.70;99.90
51841;DHT22;37888;53.246;6.658;2023-07-13T03:32:32;15.70;99.90
51841;DHT22;37888;53.246;6.658;2023-07-13T03:34:58;15.70;99.90
51841;DHT22;37888;53.246;6.658;2023-07-13T03:37:24;15.70;99.90
51841;DHT22;37888;53.246;6.658;2023-07-13T03:39:50;15.70;99.90
51841;DHT22;37888;53.246;6.658;2023-07-13T03:42:16;15.70;99.90
51841;DHT22;37888;53.246;6.658;2023-07-13T03:44:42;15.70;99.90
51841;DHT22;37888;53.246;6.658;2023-07-13T03:47:11;15.70;99.90
51841;DHT22;37888;53.246;6.658;2023-07-13T03:49:37;15.70;99.90
51841;DHT22;37888;53.246;6.658;2023-07-13T03:52:03;15.70;99.90
51841;DHT22;37888;53.246;6.658;2023-07-13T03:54:29;15.80;99.90
51841;DHT22;37888;53.246;6.658;2023-07-13T03:56:55;15.80;99.90
51841;DHT22;37888;53.246;6.658;2023-07-13T03:59:21;15.80;99.90
51841;DHT22;37888;53.246;6.658;2023-07-13T04:01:47;15.80;99.90
51841;DHT22;37888;53.246;6.658;2023-07-13T04:04:13;15.90;99.90
51841;DHT22;37888;53.246;6.658;2023-07-13T04:06:38;15.90;99.90
51841;DHT22;37888;53.246;6.658;2023-07-13T04:09:04;15.90;99.90
51841;DHT22;37888;53.246;6.658;2023-07-13T04:11:32;15.90;99.90
51841;DHT22;37888;53.246;6.658;2023-07-13T04:13:58;16.00;99.90
51841;DHT22;37888;53.246;6.658;2023-07-13T04:16:26;15.90;99.90
51841;DHT22;37888;53.246;6.658;2023-07-13T04:18:52;16.20;99.90
51841;DHT22;37888;53.246;6.658;2023-07-13T04:21:20;16.00;99.90
51841;DHT22;37888;53.246;6.658;2023-07-13T04:23:46;16.00;99.90
51841;DHT22;37888;53.246;6.658;2023-07-13T04:26:12;15.80;99.90
51841;DHT22;37888;53.246;6.658;2023-07-13T04:28:38;16.10;99.90
51841;DHT22;37888;53.246;6.658;2023-07-13T04:31:04;16.10;99.90
51841;DHT22;37888;53.246;6.658;2023-07-13T04:33:33;16.10;99.90
51841;DHT22;37888;53.246;6.658;2023-07-13T04:35:59;16.10;99.90
51841;DHT22;37888;53.246;6.658;2023-07-13T04:38:29;16.20;99.90
51841;DHT22;37888;53.246;6.658;2023-07-13T04:41:00;16.30;99.90
51841;DHT22;37888;53.246;6.658;2023-07-13T04:43:26;16.30;99.90
51841;DHT22;37888;53.246;6.658;2023-07-13T04:45:53;16.40;99.90
51841;DHT22;37888;53.246;6.658;2023-07-13T04:48:19;16.60;99.90
51841;DHT22;37888;53.246;6.658;2023-07-13T04:50:46;16.50;99.90
51841;DHT22;37888;53.246;6.658;2023-07-13T04:53:12;16.60;99.90
51841;DHT22;37888;53.246;6.658;2023-07-13T04:55:38;16.70;99.90
51841;DHT22;37888;53.246;6.658;2023-07-13T04:58:04;16.80;99.90
51841;DHT22;37888;53.246;6.658;2023-07-13T05:00:30;16.90;99.90
51841;DHT22;37888;53.246;6.658;2023-07-13T05:02:57;17.00;99.90
51841;DHT22;37888;53.246;6.658;2023-07-13T05:05:25;17.20;99.90
51841;DHT22;37888;53.246;6.658;2023-07-13T05:07:52;17.30;99.90
51841;DHT22;37888;53.246;6.658;2023-07-13T05:10:18;17.40;99.90
51841;DHT22;37888;53.246;6.658;2023-07-13T05:12:44;17.50;99.90
51841;DHT22;37888;53.246;6.658;2023-07-13T05:15:10;17.70;99.90
51841;DHT22;37888;53.246;6.658;2023-07-13T05:17:36;17.80;99.90
51841;DHT22;37888;53.246;6.658;2023-07-13T05:20:02;17.90;99.90
51841;DHT22;37888;53.246;6.658;2023-07-13T05:22:27;18.00;99.90
51841;DHT22;37888;53.246;6.658;2023-07-13T05:24:53;18.00;99.90
51841;DHT22;37888;53.246;6.658;2023-07-13T05:27:19;18.10;99.90
51841;DHT22;37888;53.246;6.658;2023-07-13T05:29:45;18.20;99.90
51841;DHT22;37888;53.246;6.658;2023-07-13T05:32:10;18.10;99.90
51841;DHT22;37888;53.246;6.658;2023-07-13T05:34:36;18.20;99.90
51841;DHT22;37888;53.246;6.658;2023-07-13T05:37:05;18.30;99.90
51841;DHT22;37888;53.246;6.658;2023-07-13T05:39:31;18.50;99.90
51841;DHT22;37888;53.246;6.658;2023-07-13T05:41:57;19.10;99.90
51841;DHT22;37888;53.246;6.658;2023-07-13T05:44:22;19.90;99.90
51841;DHT22;37888;53.246;6.658;2023-07-13T05:46:48;20.60;99.90
51841;DHT22;37888;53.246;6.658;2023-07-13T05:49:14;21.60;99.90
51841;DHT22;37888;53.246;6.658;2023-07-13T05:51:40;22.20;99.90
51841;DHT22;37888;53.246;6.658;2023-07-13T05:54:05;22.70;99.90
51841;DHT22;37888;53.246;6.658;2023-07-13T05:56:31;23.10;99.90
51841;DHT22;37888;53.246;6.658;2023-07-13T05:58:57;23.60;99.90
51841;DHT22;37888;53.246;6.658;2023-07-13T06:01:22;24.40;99.90
51841;DHT22;37888;53.246;6.658;2023-07-13T06:03:49;25.00;99.90
51841;DHT22;37888;53.246;6.658;2023-07-13T06:06:15;25.50;99.90
51841;DHT22;37888;53.246;6.658;2023-07-13T06:08:41;26.00;99.90
51841;DHT22;37888;53.246;6.658;2023-07-13T06:11:14;26.50;99.90
51841;DHT22;37888;53.246;6.658;2023-07-13T06:13:40;26.90;99.90
51841;DHT22;37888;53.246;6.658;2023-07-13T06:16:06;27.30;99.90
51841;DHT22;37888;53.246;6.658;2023-07-13T06:18:33;27.40;99.90
51841;DHT22;37888;53.246;6.658;2023-07-13T06:20:59;27.80;99.90
51841;DHT22;37888;53.246;6.658;2023-07-13T06:23:25;28.00;99.90
51841;DHT22;37888;53.246;6.658;2023-07-13T06:25:51;28.10;99.90
51841;DHT22;37888;53.246;6.658;2023-07-13T06:28:17;28.20;99.90
51841;DHT22;37888;53.246;6.658;2023-07-13T06:30:43;28.10;99.90
51841;DHT22;37888;53.246;6.658;2023-07-13T06:33:08;27.30;99.90
51841;DHT22;37888;53.246;6.658;2023-07-13T06:35:34;27.20;99.90
51841;DHT22;37888;53.246;6.658;2023-07-13T06:38:18;27.40;99.90
51841;DHT22;37888;53.246;6.658;2023-07-13T06:40:53;27.70;99.90
51841;DHT22;37888;53.246;6.658;2023-07-13T06:43:18;28.30;99.90
51841;DHT22;37888;53.246;6.658;2023-07-13T06:45:48;28.40;99.90
51841;DHT22;37888;53.246;6.658;2023-07-13T06:48:16;28.40;99.90
51841;DHT22;37888;53.246;6.658;2023-07-13T06:51:11;28.20;99.90
51841;DHT22;37888;53.246;6.658;2023-07-13T06:56:47;27.40;99.90
51841;DHT22;37888;53.246;6.658;2023-07-13T06:59:13;28.10;99.90
51841;DHT22;37888;53.246;6.658;2023-07-13T07:01:39;28.00;99.90
51841;DHT22;37888;53.246;6.658;2023-07-13T07:04:05;28.20;99.90
51841;DHT22;37888;53.246;6.658;2023-07-13T07:06:38;28.20;99.40
51841;DHT22;37888;53.246;6.658;2023-07-13T07:09:39;27.80;98.90
51841;DHT22;37888;53.246;6.658;2023-07-13T07:12:57;27.30;94.30
51841;DHT22;37888;53.246;6.658;2023-07-13T07:18:51;27.30;97.20
51841;DHT22;37888;53.246;6.658;2023-07-13T07:21:17;27.00;94.60
51841;DHT22;37888;53.246;6.658;2023-07-13T07:23:57;26.80;99.60
51841;DHT22;37888;53.246;6.658;2023-07-13T07:26:31;26.50;99.10
51841;DHT22;37888;53.246;6.658;2023-07-13T07:29:10;26.20;99.90
51841;DHT22;37888;53.246;6.658;2023-07-13T07:31:43;25.50;99.90
51841;DHT22;37888;53.246;6.658;2023-07-13T07:34:09;25.60;99.90
51841;DHT22;37888;53.246;6.658;2023-07-13T07:36:47;25.40;99.90
51841;DHT22;37888;53.246;6.658;2023-07-13T07:39:16;24.80;99.90
51841;DHT22;37888;53.246;6.658;2023-07-13T07:42:22;24.90;99.90
51841;DHT22;37888;53.246;6.658;2023-07-13T08:03:46;26.40;90.80
51841;DHT22;37888;53.246;6.658;2023-07-13T08:06:11;25.40;96.60
51841;DHT22;37888;53.246;6.658;2023-07-13T08:08:37;24.70;99.80
51841;DHT22;37888;53.246;6.658;2023-07-13T08:11:07;24.00;99.90
51841;DHT22;37888;53.246;6.658;2023-07-13T08:13:34;23.30;99.90
51841;DHT22;37888;53.246;6.658;2023-07-13T08:16:00;22.80;99.90
51841;DHT22;37888;53.246;6.658;2023-07-13T08:18:26;22.40;99.90
51841;DHT22;37888;53.246;6.658;2023-07-13T08:20:53;22.10;99.90
51841;DHT22;37888;53.246;6.658;2023-07-13T08:23:23;21.70;99.90
51841;DHT22;37888;53.246;6.658;2023-07-13T08:25:53;21.60;99.90
51841;DHT22;37888;53.246;6.658;2023-07-13T08:28:20;21.30;99.90
51841;DHT22;37888;53.246;6.658;2023-07-13T08:30:46;21.30;99.90
51841;DHT22;37888;53.246;6.658;2023-07-13T08:33:19;21.00;99.90
51841;DHT22;37888;53.246;6.658;2023-07-13T08:35:47;21.20;99.90
51841;DHT22;37888;53.246;6.658;2023-07-13T08:38:13;21.20;99.90
51841;DHT22;37888;53.246;6.658;2023-07-13T08:40:39;21.20;99.90
51841;DHT22;37888;53.246;6.658;2023-07-13T08:43:09;21.10;99.90
51841;DHT22;37888;53.246;6.658;2023-07-13T08:45:46;20.90;99.90
51841;DHT22;37888;53.246;6.658;2023-07-13T08:48:23;20.90;99.90
51841;DHT22;37888;53.246;6.658;2023-07-13T08:51:11;20.80;99.90
51841;DHT22;37888;53.246;6.658;2023-07-13T08:53:46;20.80;99.90
51841;DHT22;37888;53.246;6.658;2023-07-13T08:56:21;20.80;99.90
51841;DHT22;37888;53.246;6.658;2023-07-13T08:59:13;20.90;99.90
51841;DHT22;37888;53.246;6.658;2023-07-13T09:02:08;21.30;99.90
51841;DHT22;37888;53.246;6.658;2023-07-13T09:04:45;22.00;99.90
51841;DHT22;37888;53.246;6.658;2023-07-13T09:07:46;22.90;99.90
51841;DHT22;37888;53.246;6.658;2023-07-13T09:13:19;22.90;99.90
51841;DHT22;37888;53.246;6.658;2023-07-13T09:15:44;22.30;99.90
51841;DHT22;37888;53.246;6.658;2023-07-13T09:20:52;21.70;99.90
51841;DHT22;37888;53.246;6.658;2023-07-13T09:23:22;21.40;99.90
51841;DHT22;37888;53.246;6.658;2023-07-13T09:25:54;21.30;99.90
51841;DHT22;37888;53.246;6.658;2023-07-13T09:28:26;21.10;99.90
51841;DHT22;37888;53.246;6.658;2023-07-13T09:31:03;21.00;99.90
51841;DHT22;37888;53.246;6.658;2023-07-13T09:33:30;21.00;99.90
51841;DHT22;37888;53.246;6.658;2023-07-13T09:35:57;21.20;99.90
51841;DHT22;37888;53.246;6.658;2023-07-13T09:38:26;21.70;99.90
51841;DHT22;37888;53.246;6.658;2023-07-13T09:44:01;22.60;99.90
51841;DHT22;37888;53.246;6.658;2023-07-13T09:46:27;22.80;99.90
51841;DHT22;37888;53.246;6.658;2023-07-13T09:48:53;22.90;99.90
51841;DHT22;37888;53.246;6.658;2023-07-13T09:51:21;22.90;99.90
51841;DHT22;37888;53.246;6.658;2023-07-13T09:53:47;22.80;99.90
51841;DHT22;37888;53.246;6.658;2023-07-13T09:56:21;22.70;99.90
51841;DHT22;37888;53.246;6.658;2023-07-13T09:58:47;22.40;99.90
51841;DHT22;37888;53.246;6.658;2023-07-13T10:01:12;22.20;99.90
51841;DHT22;37888;53.246;6.658;2023-07-13T10:03:40;22.00;99.90
51841;DHT22;37888;53.246;6.658;2023-07-13T10:06:18;21.80;99.90
51841;DHT22;37888;53.246;6.658;2023-07-13T10:08:46;21.70;99.90
51841;DHT22;37888;53.246;6.658;2023-07-13T10:11:23;21.40;99.90
51841;DHT22;37888;53.246;6.658;2023-07-13T10:13:56;21.20;99.90
51841;DHT22;37888;53.246;6.658;2023-07-13T10:16:35;21.00;99.90
51841;DHT22;37888;53.246;6.658;2023-07-13T10:19:11;20.90;99.90
51841;DHT22;37888;53.246;6.658;2023-07-13T10:21:54;20.80;99.90
51841;DHT22;37888;53.246;6.658;2023-07-13T10:24:22;20.80;99.90
51841;DHT22;37888;53.246;6.658;2023-07-13T10:29:26;21.30;99.90
51841;DHT22;37888;53.246;6.658;2023-07-13T10:31:52;21.50;99.90
51841;DHT22;37888;53.246;6.658;2023-07-13T10:34:18;21.70;99.90
51841;DHT22;37888;53.246;6.658;2023-07-13T10:36:45;21.80;99.90
51841;DHT22;37888;53.246;6.658;2023-07-13T10:39:26;22.00;99.90
51841;DHT22;37888;53.246;6.658;2023-07-13T10:41:55;22.30;99.90
51841;DHT22;37888;53.246;6.658;2023-07-13T10:44:28;22.50;99.90
51841;DHT22;37888;53.246;6.658;2023-07-13T10:47:00;22.80;99.90
51841;DHT22;37888;53.246;6.658;2023-07-13T10:49:28;23.00;99.90
51841;DHT22;37888;53.246;6.658;2023-07-13T10:51:55;23.10;99.90
51841;DHT22;37888;53.246;6.658;2023-07-13T10:54:31;23.00;99.90
51841;DHT22;37888;53.246;6.658;2023-07-13T10:59:42;22.60;99.90
51841;DHT22;37888;53.246;6.658;2023-07-13T11:02:26;22.60;99.90
51841;DHT22;37888;53.246;6.658;2023-07-13T11:04:55;22.70;99.90
51841;DHT22;37888;53.246;6.658;2023-07-13T11:07:30;22.80;99.90
51841;DHT22;37888;53.246;6.658;2023-07-13T11:10:04;22.90;99.90
51841;DHT22;37888;53.246;6.658;2023-07-13T11:12:51;22.90;99.90
51841;DHT22;37888;53.246;6.658;2023-07-13T11:15:32;22.70;99.90
51841;DHT22;37888;53.246;6.658;2023-07-13T11:18:03;22.50;99.90
51841;DHT22;37888;53.246;6.658;2023-07-13T11:20:39;22.50;99.90
51841;DHT22;37888;53.246;6.658;2023-07-13T11:23:27;22.50;99.90
51841;DHT22;37888;53.246;6.658;2023-07-13T11:25:53;22.70;99.90
51841;DHT22;37888;53.246;6.658;2023-07-13T11:28:23;22.50;99.90
51841;DHT22;37888;53.246;6.658;2023-07-13T11:31:01;22.20;99.90
51841;DHT22;37888;53.246;6.658;2023-07-13T11:33:29;22.30;99.90
51841;DHT22;37888;53.246;6.658;2023-07-13T11:36:03;22.50;99.90
51841;DHT22;37888;53.246;6.658;2023-07-13T11:41:05;22.70;99.90
51841;DHT22;37888;53.246;6.658;2023-07-13T11:43:31;22.80;99.90
51841;DHT22;37888;53.246;6.658;2023-07-13T11:46:12;22.70;99.90
51841;DHT22;37888;53.246;6.658;2023-07-13T11:48:38;22.60;99.90
51841;DHT22;37888;53.246;6.658;2023-07-13T11:51:05;22.30;99.90
51841;DHT22;37888;53.246;6.658;2023-07-13T11:53:43;21.90;99.90
51841;DHT22;37888;53.246;6.658;2023-07-13T11:56:10;21.70;99.90
51841;DHT22;37888;53.246;6.658;2023-07-13T11:58:36;21.50;99.90
51841;DHT22;37888;53.246;6.658;2023-07-13T12:01:02;21.70;99.90
51841;DHT22;37888;53.246;6.658;2023-07-13T12:03:32;21.70;99.90
51841;DHT22;37888;53.246;6.658;2023-07-13T12:06:04;21.60;99.90
51841;DHT22;37888;53.246;6.658;2023-07-13T12:08:38;21.50;99.90
51841;DHT22;37888;53.246;6.658;2023-07-13T12:11:15;21.50;99.90
51841;DHT22;37888;53.246;6.658;2023-07-13T12:13:44;21.70;99.90
51841;DHT22;37888;53.246;6.658;2023-07-13T12:16:33;21.70;99.90
51841;DHT22;37888;53.246;6.658;2023-07-13T12:19:00;21.70;99.90
51841;DHT22;37888;53.246;6.658;2023-07-13T12:21:32;21.70;99.90
51841;DHT22;37888;53.246;6.658;2023-07-13T12:23:59;21.50;99.90
51841;DHT22;37888;53.246;6.658;2023-07-13T12:26:28;21.30;99.90
51841;DHT22;37888;53.246;6.658;2023-07-13T12:28:57;21.30;99.90
51841;DHT22;37888;53.246;6.658;2023-07-13T12:31:36;21.30;99.90
51841;DHT22;37888;53.246;6.658;2023-07-13T12:34:11;21.30;99.90
51841;DHT22;37888;53.246;6.658;2023-07-13T12:36:45;21.30;99.90
51841;DHT22;37888;53.246;6.658;2023-07-13T12:39:18;21.20;99.90
51841;DHT22;37888;53.246;6.658;2023-07-13T12:41:44;21.10;99.90
51841;DHT22;37888;53.246;6.658;2023-07-13T12:44:31;21.00;99.90
51841;DHT22;37888;53.246;6.658;2023-07-13T12:47:02;20.80;99.90
51841;DHT22;37888;53.246;6.658;2023-07-13T12:49:31;20.60;99.90
51841;DHT22;37888;53.246;6.658;2023-07-13T12:52:02;20.40;99.90
51841;DHT22;37888;53.246;6.658;2023-07-13T12:54:29;20.30;99.90
51841;DHT22;37888;53.246;6.658;2023-07-13T12:56:56;20.30;99.90
51841;DHT22;37888;53.246;6.658;2023-07-13T12:59:26;20.40;99.90
51841;DHT22;37888;53.246;6.658;2023-07-13T13:01:54;20.20;99.90
51841;DHT22;37888;53.246;6.658;2023-07-13T13:04:20;20.20;99.90
51841;DHT22;37888;53.246;6.658;2023-07-13T13:06:47;20.30;99.90
51841;DHT22;37888;53.246;6.658;2023-07-13T13:09:15;20.40;99.90
51841;DHT22;37888;53.246;6.658;2023-07-13T13:11:46;20.50;99.90
51841;DHT22;37888;53.246;6.658;2023-07-13T13:14:12;20.80;99.90
51841;DHT22;37888;53.246;6.658;2023-07-13T13:16:48;20.80;99.90
51841;DHT22;37888;53.246;6.658;2023-07-13T13:19:18;20.90;99.90
51841;DHT22;37888;53.246;6.658;2023-07-13T13:21:46;20.90;99.90
51841;DHT22;37888;53.246;6.658;2023-07-13T13:24:18;20.90;99.90
51841;DHT22;37888;53.246;6.658;2023-07-13T13:26:45;21.00;99.90
51841;DHT22;37888;53.246;6.658;2023-07-13T13:29:17;21.10;99.90
51841;DHT22;37888;53.246;6.658;2023-07-13T13:31:44;21.00;99.90
51841;DHT22;37888;53.246;6.658;2023-07-13T13:34:12;20.80;99.90
51841;DHT22;37888;53.246;6.658;2023-07-13T13:36:40;20.60;99.90
51841;DHT22;37888;53.246;6.658;2023-07-13T13:39:25;20.50;99.90
51841;DHT22;37888;53.246;6.658;2023-07-13T13:41:53;20.40;99.90
51841;DHT22;37888;53.246;6.658;2023-07-13T13:44:21;20.20;99.90
51841;DHT22;37888;53.246;6.658;2023-07-13T13:46:54;20.10;99.90
51841;DHT22;37888;53.246;6.658;2023-07-13T13:49:24;19.90;99.90
51841;DHT22;37888;53.246;6.658;2023-07-13T13:51:50;19.90;99.90
51841;DHT22;37888;53.246;6.658;2023-07-13T13:54:18;20.00;99.90
51841;DHT22;37888;53.246;6.658;2023-07-13T13:56:47;20.10;99.90
51841;DHT22;37888;53.246;6.658;2023-07-13T13:59:13;20.20;99.90
51841;DHT22;37888;53.246;6.658;2023-07-13T14:01:41;20.30;99.90
51841;DHT22;37888;53.246;6.658;2023-07-13T14:04:22;20.40;99.90
51841;DHT22;37888;53.246;6.658;2023-07-13T14:06:48;20.50;99.90
51841;DHT22;37888;53.246;6.658;2023-07-13T14:09:17;20.60;99.90
51841;DHT22;37888;53.246;6.658;2023-07-13T14:11:43;20.70;99.90
51841;DHT22;37888;53.246;6.658;2023-07-13T14:14:30;20.70;99.90
51841;DHT22;37888;53.246;6.658;2023-07-13T14:16:56;20.70;99.90
51841;DHT22;37888;53.246;6.658;2023-07-13T14:19:23;20.60;99.90
51841;DHT22;37888;53.246;6.658;2023-07-13T14:21:48;20.60;99.90
51841;DHT22;37888;53.246;6.658;2023-07-13T14:24:15;20.60;99.90
51841;DHT22;37888;53.246;6.658;2023-07-13T14:26:41;20.60;99.90
51841;DHT22;37888;53.246;6.658;2023-07-13T14:29:11;20.70;99.90
51841;DHT22;37888;53.246;6.658;2023-07-13T14:31:37;20.80;99.90
51841;DHT22;37888;53.246;6.658;2023-07-13T14:34:03;20.80;99.90
51841;DHT22;37888;53.246;6.658;2023-07-13T14:36:44;20.80;99.90
51841;DHT22;37888;53.246;6.658;2023-07-13T14:39:19;20.80;99.90
51841;DHT22;37888;53.246;6.658;2023-07-13T14:41:45;20.80;99.90
51841;DHT22;37888;53.246;6.658;2023-07-13T14:44:16;20.80;99.90
51841;DHT22;37888;53.246;6.658;2023-07-13T14:46:42;20.80;99.90
51841;DHT22;37888;53.246;6.658;2023-07-13T14:49:16;21.00;99.90
51841;DHT22;37888;53.246;6.658;2023-07-13T14:51:45;21.00;99.90
51841;DHT22;37888;53.246;6.658;2023-07-13T14:54:11;21.00;99.90
51841;DHT22;37888;53.246;6.658;2023-07-13T14:56:37;20.90;99.90
51841;DHT22;37888;53.246;6.658;2023-07-13T14:59:03;20.80;99.90
51841;DHT22;37888;53.246;6.658;2023-07-13T15:01:30;20.80;99.90
51841;DHT22;37888;53.246;6.658;2023-07-13T15:03:58;20.70;99.90
51841;DHT22;37888;53.246;6.658;2023-07-13T15:06:24;20.70;99.90
51841;DHT22;37888;53.246;6.658;2023-07-13T15:08:49;20.70;99.90
51841;DHT22;37888;53.246;6.658;2023-07-13T15:11:16;20.70;99.90
51841;DHT22;37888;53.246;6.658;2023-07-13T15:13:42;20.70;99.90
51841;DHT22;37888;53.246;6.658;2023-07-13T15:16:24;20.70;99.90
51841;DHT22;37888;53.246;6.658;2023-07-13T15:18:50;20.60;99.90
51841;DHT22;37888;53.246;6.658;2023-07-13T15:21:23;20.70;99.90
51841;DHT22;37888;53.246;6.658;2023-07-13T15:23:50;20.70;99.90
51841;DHT22;37888;53.246;6.658;2023-07-13T15:26:18;20.60;99.90
51841;DHT22;37888;53.246;6.658;2023-07-13T15:28:45;20.50;99.90
51841;DHT22;37888;53.246;6.658;2023-07-13T15:31:19;20.50;99.90
51841;DHT22;37888;53.246;6.658;2023-07-13T15:33:46;20.40;99.90
51841;DHT22;37888;53.246;6.658;2023-07-13T15:36:15;20.50;99.90
51841;DHT22;37888;53.246;6.658;2023-07-13T15:38:40;20.50;99.90
51841;DHT22;37888;53.246;6.658;2023-07-13T15:41:23;20.50;99.90
51841;DHT22;37888;53.246;6.658;2023-07-13T15:43:51;20.40;99.90
51841;DHT22;37888;53.246;6.658;2023-07-13T15:46:19;20.30;99.90
51841;DHT22;37888;53.246;6.658;2023-07-13T15:48:47;20.30;99.90
51841;DHT22;37888;53.246;6.658;2023-07-13T15:51:20;20.40;99.90
51841;DHT22;37888;53.246;6.658;2023-07-13T15:53:48;20.40;99.90
51841;DHT22;37888;53.246;6.658;2023-07-13T15:56:18;20.40;99.90
51841;DHT22;37888;53.246;6.658;2023-07-13T15:58:45;20.40;99.90
51841;DHT22;37888;53.246;6.658;2023-07-13T16:01:12;20.50;99.90
51841;DHT22;37888;53.246;6.658;2023-07-13T16:03:39;20.60;99.90
51841;DHT22;37888;53.246;6.658;2023-07-13T16:06:15;20.60;99.90
51841;DHT22;37888;53.246;6.658;2023-07-13T16:08:43;20.50;99.90
51841;DHT22;37888;53.246;6.658;2023-07-13T16:11:17;20.40;99.90
51841;DHT22;37888;53.246;6.658;2023-07-13T16:13:45;20.30;99.90
51841;DHT22;37888;53.246;6.658;2023-07-13T16:16:12;20.30;99.90
51841;DHT22;37888;53.246;6.658;2023-07-13T16:18:38;20.30;99.90
51841;DHT22;37888;53.246;6.658;2023-07-13T16:21:12;20.30;99.90
51841;DHT22;37888;53.246;6.658;2023-07-13T16:23:39;20.30;99.90
51841;DHT22;37888;53.246;6.658;2023-07-13T16:26:26;20.10;99.90
51841;DHT22;37888;53.246;6.658;2023-07-13T16:28:52;20.20;99.90
51841;DHT22;37888;53.246;6.658;2023-07-13T16:31:34;20.30;99.90
51841;DHT22;37888;53.246;6.658;2023-07-13T16:34:00;20.30;99.90